sensor_id;sensor_type;location;lat;lon;timestamp;pressure;altitude;pressure_sealevel;temperature;humidity
78573;BME280;67862;0.000;0.000;2023-04-01T00:01:00;97758.56;;;21.81;61.81
78573;BME280;67862;0.000;0.000;2023-04-01T00:03:26;97753.91;;;21.82;61.42
78573;BME280;67862;0.000;0.000;2023-04-01T00:05:53;97753.91;;;21.82;61.28
78573;BME280;67862;0.000;0.000;2023-04-01T00:08:18;97752.28;;;21.81;61.41
78573;BME280;67862;0.000;0.000;2023-04-01T00:10:44;97746.00;;;21.80;61.76
78573;BME280;67862;0.000;0.000;2023-04-01T00:13:10;97745.53;;;21.78;61.59
78573;BME280;67862;0.000;0.000;2023-04-01T00:15:35;97751.47;;;21.80;61.71
78573;BME280;67862;0.000;0.000;2023-04-01T00:18:00;97744.91;;;21.81;61.40
78573;BME280;67862;0.000;0.000;2023-04-01T00:20:26;97739.09;;;21.83;61.79
78573;BME280;67862;0.000;0.000;2023-04-01T00:22:52;97738.31;;;21.82;61.44
78573;BME280;67862;0.000;0.000;2023-04-01T00:25:17;97737.50;;;21.82;61.58
78573;BME280;67862;0.000;0.000;2023-04-01T00:27:42;97738.31;;;21.82;61.88
78573;BME280;67862;0.000;0.000;2023-04-01T00:30:08;97737.81;;;21.80;61.47
78573;BME280;67862;0.000;0.000;2023-04-01T00:32:34;97741.19;;;21.77;61.61
78573;BME280;67862;0.000;0.000;2023-04-01T00:34:59;97741.19;;;21.77;62.20
78573;BME280;67862;0.000;0.000;2023-04-01T00:37:25;97737.34;;;21.78;61.80
78573;BME280;67862;0.000;0.000;2023-04-01T00:39:51;97738.94;;;21.79;61.81
78573;BME280;67862;0.000;0.000;2023-04-01T00:42:16;97743.59;;;21.79;61.23
78573;BME280;67862;0.000;0.000;2023-04-01T00:44:42;97733.47;;;21.79;61.46
78573;BME280;67862;0.000;0.000;2023-04-01T00:47:08;97730.75;;;21.79;61.23
78573;BME280;67862;0.000;0.000;2023-04-01T00:49:35;97738.13;;;21.79;61.75
78573;BME280;67862;0.000;0.000;2023-04-01T00:52:01;97742.81;;;21.78;61.26
78573;BME280;67862;0.000;0.000;2023-04-01T00:54:28;97735.88;;;21.81;61.63
78573;BME280;67862;0.000;0.000;2023-04-01T00:56:55;97729.16;;;21.78;61.63
78573;BME280;67862;0.000;0.000;2023-04-01T00:59:24;97732.69;;;21.79;61.56
78573;BME280;67862;0.000;0.000;2023-04-01T01:04:56;97734.94;;;21.77;61.63
78573;BME280;67862;0.000;0.000;2023-04-01T01:12:35;97730.59;;;21.76;60.97
78573;BME280;67862;0.000;0.000;2023-04-01T01:17:45;97748.94;;;21.75;61.30
78573;BME280;67862;0.000;0.000;2023-04-01T01:30:51;97745.06;;;21.76;61.83
78573;BME280;67862;0.000;0.000;2023-04-01T01:33:30;97739.59;;;21.76;61.69
78573;BME280;67862;0.000;0.000;2023-04-01T01:35:58;97740.75;;;21.75;61.33
78573;BME280;67862;0.000;0.000;2023-04-01T01:38:28;97734.81;;;21.73;61.30
78573;BME280;67862;0.000;0.000;2023-04-01T01:40:55;97726.94;;;21.71;61.58
78573;BME280;67862;0.000;0.000;2023-04-01T01:43:24;97719.84;;;21.70;60.99
78573;BME280;67862;0.000;0.000;2023-04-01T01:45:52;97715.84;;;21.68;61.11
78573;BME280;67862;0.000;0.000;2023-04-01T01:48:19;97717.44;;;21.69;60.61
78573;BME280;67862;0.000;0.000;2023-04-01T01:50:45;97720.66;;;21.71;60.20
78573;BME280;67862;0.000;0.000;2023-04-01T01:53:12;97723.88;;;21.73;61.14
78573;BME280;67862;0.000;0.000;2023-04-01T01:55:39;97732.06;;;21.73;60.63
78573;BME280;67862;0.000;0.000;2023-04-01T02:00:36;97730.47;;;21.72;60.71
78573;BME280;67862;0.000;0.000;2023-04-01T02:03:03;97726.63;;;21.73;60.72
78573;BME280;67862;0.000;0.000;2023-04-01T02:05:28;97729.19;;;21.69;60.77
78573;BME280;67862;0.000;0.000;2023-04-01T02:08:16;97726.13;;;21.71;60.68
78573;BME280;67862;0.000;0.000;2023-04-01T02:10:42;97716.31;;;21.70;60.70
78573;BME280;67862;0.000;0.000;2023-04-01T02:13:15;97718.25;;;21.69;60.64
78573;BME280;67862;0.000;0.000;2023-04-01T02:15:42;97717.78;;;21.67;60.89
78573;BME280;67862;0.000;0.000;2023-04-01T02:18:11;97708.78;;;21.67;60.88
78573;BME280;67862;0.000;0.000;2023-04-01T02:20:37;97708.78;;;21.67;60.99
78573;BME280;67862;0.000;0.000;2023-04-01T02:23:03;97707.66;;;21.68;61.32
78573;BME280;67862;0.000;0.000;2023-04-01T02:25:30;97708.13;;;21.70;61.21
78573;BME280;67862;0.000;0.000;2023-04-01T02:27:58;97709.09;;;21.74;60.95
78573;BME280;67862;0.000;0.000;2023-04-01T02:30:24;97705.91;;;21.72;60.43
78573;BME280;67862;0.000;0.000;2023-04-01T02:32:51;97707.81;;;21.71;60.77
78573;BME280;67862;0.000;0.000;2023-04-01T02:35:18;97700.59;;;21.67;60.44
78573;BME280;67862;0.000;0.000;2023-04-01T02:37:44;97703.34;;;21.67;61.06
78573;BME280;67862;0.000;0.000;2023-04-01T02:40:12;97704.47;;;21.66;61.31
78573;BME280;67862;0.000;0.000;2023-04-01T02:42:38;97701.72;;;21.66;60.78
78573;BME280;67862;0.000;0.000;2023-04-01T02:45:04;97700.81;;;21.62;60.53
78573;BME280;67862;0.000;0.000;2023-04-01T02:47:30;97712.00;;;21.69;61.82
78573;BME280;67862;0.000;0.000;2023-04-01T02:49:55;97709.59;;;21.67;60.33
78573;BME280;67862;0.000;0.000;2023-04-01T02:52:27;97700.59;;;21.67;60.47
78573;BME280;67862;0.000;0.000;2023-04-01T02:54:52;97704.13;;;21.67;60.88
78573;BME280;67862;0.000;0.000;2023-04-01T02:57:18;97706.06;;;21.67;60.74
78573;BME280;67862;0.000;0.000;2023-04-01T02:59:43;97708.78;;;21.67;60.78
78573;BME280;67862;0.000;0.000;2023-04-01T03:02:09;97704.47;;;21.66;60.21
78573;BME280;67862;0.000;0.000;2023-04-01T03:04:35;97704.47;;;21.66;60.11
78573;BME280;67862;0.000;0.000;2023-04-01T03:07:01;97706.06;;;21.67;60.33
78573;BME280;67862;0.000;0.000;2023-04-01T03:09:26;97705.59;;;21.65;60.39
78573;BME280;67862;0.000;0.000;2023-04-01T03:11:51;97707.19;;;21.66;60.11
78573;BME280;67862;0.000;0.000;2023-04-01T03:14:17;97703.34;;;21.67;59.96
78573;BME280;67862;0.000;0.000;2023-04-01T03:16:42;97707.66;;;21.68;60.25
78573;BME280;67862;0.000;0.000;2023-04-01T03:19:07;97706.06;;;21.67;60.22
78573;BME280;67862;0.000;0.000;2023-04-01T03:21:33;97709.59;;;21.67;60.60
78573;BME280;67862;0.000;0.000;2023-04-01T03:23:58;97708.00;;;21.66;59.98
78573;BME280;67862;0.000;0.000;2023-04-01T03:26:24;97701.88;;;21.69;60.40
78573;BME280;67862;0.000;0.000;2023-04-01T03:28:49;97695.94;;;21.67;60.36
78573;BME280;67862;0.000;0.000;2023-04-01T03:31:15;97696.75;;;21.68;59.30
78573;BME280;67862;0.000;0.000;2023-04-01T03:33:41;97697.88;;;21.67;60.25
78573;BME280;67862;0.000;0.000;2023-04-01T03:36:06;97698.66;;;21.67;59.96
78573;BME280;67862;0.000;0.000;2023-04-01T03:38:33;97702.19;;;21.68;59.97
78573;BME280;67862;0.000;0.000;2023-04-01T03:40:59;97711.19;;;21.68;59.55
78573;BME280;67862;0.000;0.000;2023-04-01T03:43:24;97720.84;;;21.66;60.01
78573;BME280;67862;0.000;0.000;2023-04-01T03:45:51;97728.84;;;21.71;60.25
78573;BME280;67862;0.000;0.000;2023-04-01T03:48:17;97736.91;;;21.67;59.44
78573;BME280;67862;0.000;0.000;2023-04-01T03:50:43;97736.09;;;21.67;59.21
78573;BME280;67862;0.000;0.000;2023-04-01T03:53:08;97732.75;;;21.61;59.90
78573;BME280;67862;0.000;0.000;2023-04-01T03:55:35;97723.28;;;21.59;60.31
78573;BME280;67862;0.000;0.000;2023-04-01T03:58:01;97722.81;;;21.57;60.15
78573;BME280;67862;0.000;0.000;2023-04-01T04:00:28;97713.81;;;21.56;60.61
78573;BME280;67862;0.000;0.000;2023-04-01T04:02:53;97720.88;;;21.57;60.76
78573;BME280;67862;0.000;0.000;2023-04-01T04:05:20;97724.25;;;21.63;60.56
78573;BME280;67862;0.000;0.000;2023-04-01T04:07:46;97729.53;;;21.59;60.53
78573;BME280;67862;0.000;0.000;2023-04-01T04:10:11;97723.28;;;21.59;60.17
78573;BME280;67862;0.000;0.000;2023-04-01T04:12:36;97730.34;;;21.60;60.03
78573;BME280;67862;0.000;0.000;2023-04-01T04:15:02;97737.91;;;21.54;59.93
78573;BME280;67862;0.000;0.000;2023-04-01T04:17:27;97727.00;;;21.54;59.87
78573;BME280;67862;0.000;0.000;2023-04-01T04:19:52;97730.69;;;21.50;60.28
78573;BME280;67862;0.000;0.000;2023-04-01T04:22:18;97739.53;;;21.55;60.10
78573;BME280;67862;0.000;0.000;2023-04-01T04:24:43;97735.19;;;21.54;60.06
78573;BME280;67862;0.000;0.000;2023-04-01T04:27:09;97737.59;;;21.56;59.89
78573;BME280;67862;0.000;0.000;2023-04-01T04:29:34;97736.00;;;21.55;60.12
78573;BME280;67862;0.000;0.000;2023-04-01T04:31:59;97736.16;;;21.50;60.35
78573;BME280;67862;0.000;0.000;2023-04-01T04:34:25;97734.56;;;21.49;60.04
78573;BME280;67862;0.000;0.000;2023-04-01T04:36:50;97733.88;;;21.52;60.11
78573;BME280;67862;0.000;0.000;2023-04-01T04:39:18;97728.44;;;21.52;60.34
78573;BME280;67862;0.000;0.000;2023-04-01T04:41:43;97729.09;;;21.49;60.34
78573;BME280;67862;0.000;0.000;2023-04-01T04:44:08;97724.44;;;21.49;60.48
78573;BME280;67862;0.000;0.000;2023-04-01T04:46:34;97719.31;;;21.48;60.53
78573;BME280;67862;0.000;0.000;2023-04-01T04:49:01;97722.84;;;21.48;60.46
78573;BME280;67862;0.000;0.000;2023-04-01T04:51:26;97716.56;;;21.48;60.68
78573;BME280;67862;0.000;0.000;2023-04-01T04:53:51;97717.38;;;21.48;60.49
78573;BME280;67862;0.000;0.000;2023-04-01T04:56:17;97714.97;;;21.47;60.34
78573;BME280;67862;0.000;0.000;2023-04-01T04:58:43;97717.03;;;21.50;60.31
78573;BME280;67862;0.000;0.000;2023-04-01T05:01:09;97721.38;;;21.51;60.90
78573;BME280;67862;0.000;0.000;2023-04-01T05:03:35;97720.56;;;21.50;60.73
78573;BME280;67862;0.000;0.000;2023-04-01T05:06:01;97721.38;;;21.51;60.64
78573;BME280;67862;0.000;0.000;2023-04-01T05:08:26;97724.75;;;21.48;60.51
78573;BME280;67862;0.000;0.000;2023-04-01T05:10:51;97720.44;;;21.47;60.94
78573;BME280;67862;0.000;0.000;2023-04-01T05:13:17;97723.63;;;21.49;60.86
78573;BME280;67862;0.000;0.000;2023-04-01T05:15:42;97719.78;;;21.50;60.87
78573;BME280;67862;0.000;0.000;2023-04-01T05:18:07;97722.22;;;21.42;61.07
78573;BME280;67862;0.000;0.000;2023-04-01T05:20:33;97721.09;;;21.43;61.38
78573;BME280;67862;0.000;0.000;2023-04-01T05:22:59;97722.97;;;21.52;61.12
78573;BME280;67862;0.000;0.000;2023-04-01T05:25:24;97715.13;;;21.50;60.43
78573;BME280;67862;0.000;0.000;2023-04-01T05:27:50;97722.97;;;21.52;60.32
78573;BME280;67862;0.000;0.000;2023-04-01T05:30:15;97719.97;;;21.45;59.90
78573;BME280;67862;0.000;0.000;2023-04-01T05:32:41;97722.69;;;21.45;60.56
78573;BME280;67862;0.000;0.000;2023-04-01T05:35:06;97721.91;;;21.44;60.08
78573;BME280;67862;0.000;0.000;2023-04-01T05:37:33;97717.22;;;21.45;60.13
78573;BME280;67862;0.000;0.000;2023-04-01T05:39:59;97721.09;;;21.43;60.08
78573;BME280;67862;0.000;0.000;2023-04-01T05:42:24;97726.38;;;21.40;60.04
78573;BME280;67862;0.000;0.000;2023-04-01T05:44:50;97726.06;;;21.41;59.81
78573;BME280;67862;0.000;0.000;2023-04-01T05:47:15;97724.78;;;21.39;60.19
78573;BME280;67862;0.000;0.000;2023-04-01T05:49:41;97723.19;;;21.38;60.03
78573;BME280;67862;0.000;0.000;2023-04-01T05:52:06;97725.44;;;21.36;59.41
78573;BME280;67862;0.000;0.000;2023-04-01T05:54:31;97715.31;;;21.36;59.47
78573;BME280;67862;0.000;0.000;2023-04-01T05:56:57;97722.72;;;21.36;59.44
78573;BME280;67862;0.000;0.000;2023-04-01T05:59:22;97721.44;;;21.33;59.17
78573;BME280;67862;0.000;0.000;2023-04-01T06:01:47;97718.38;;;21.35;59.73
78573;BME280;67862;0.000;0.000;2023-04-01T06:04:13;97718.72;;;21.33;59.69
78573;BME280;67862;0.000;0.000;2023-04-01T06:06:40;97724.19;;;21.33;59.40
78573;BME280;67862;0.000;0.000;2023-04-01T06:09:18;97719.81;;;21.32;59.69
78573;BME280;67862;0.000;0.000;2023-04-01T06:11:47;97726.09;;;21.33;59.22
78573;BME280;67862;0.000;0.000;2023-04-01T06:14:23;97729.94;;;21.32;59.28
78573;BME280;67862;0.000;0.000;2023-04-01T06:24:44;97725.47;;;21.27;59.32
78573;BME280;67862;0.000;0.000;2023-04-01T06:27:16;97725.13;;;21.29;59.30
78573;BME280;67862;0.000;0.000;2023-04-01T06:29:52;97725.47;;;21.27;59.30
78573;BME280;67862;0.000;0.000;2023-04-01T06:35:01;97736.69;;;21.26;58.65
78573;BME280;67862;0.000;0.000;2023-04-01T06:43:05;97737.50;;;21.26;59.39
78573;BME280;67862;0.000;0.000;2023-04-01T06:45:39;97738.44;;;21.22;59.21
78573;BME280;67862;0.000;0.000;2023-04-01T06:48:20;97743.09;;;21.21;59.28
78573;BME280;67862;0.000;0.000;2023-04-01T06:51:04;97735.56;;;21.27;59.02
78573;BME280;67862;0.000;0.000;2023-04-01T06:56:08;97738.75;;;21.20;59.33
78573;BME280;67862;0.000;0.000;2023-04-01T06:58:36;97733.31;;;21.20;59.25
78573;BME280;67862;0.000;0.000;2023-04-01T07:01:04;97741.50;;;21.20;59.58
78573;BME280;67862;0.000;0.000;2023-04-01T07:03:35;97738.75;;;21.20;59.69
78573;BME280;67862;0.000;0.000;2023-04-01T07:06:05;97739.22;;;21.22;59.70
78573;BME280;67862;0.000;0.000;2023-04-01T07:08:31;97736.69;;;21.26;59.52
78573;BME280;67862;0.000;0.000;2023-04-01T07:11:01;97732.38;;;21.33;59.55
78573;BME280;67862;0.000;0.000;2023-04-01T07:13:29;97737.31;;;21.31;59.30
78573;BME280;67862;0.000;0.000;2023-04-01T07:16:08;97736.84;;;21.29;59.61
78573;BME280;67862;0.000;0.000;2023-04-01T07:18:41;97735.25;;;21.28;59.40
78573;BME280;67862;0.000;0.000;2023-04-01T07:21:22;97734.28;;;21.24;59.46
78573;BME280;67862;0.000;0.000;2023-04-01T07:23:48;97731.84;;;21.23;59.71
78573;BME280;67862;0.000;0.000;2023-04-01T07:26:20;97736.50;;;21.22;59.81
78573;BME280;67862;0.000;0.000;2023-04-01T07:28:46;97735.56;;;21.18;59.53
78573;BME280;67862;0.000;0.000;2023-04-01T07:31:40;97741.16;;;21.22;59.81
78573;BME280;67862;0.000;0.000;2023-04-01T07:34:04;97736.22;;;21.15;59.64
78573;BME280;67862;0.000;0.000;2023-04-01T07:47:13;97727.72;;;21.08;58.90
78573;BME280;67862;0.000;0.000;2023-04-01T08:00:07;97723.53;;;21.10;58.47
78573;BME280;67862;0.000;0.000;2023-04-01T08:02:39;97728.19;;;21.10;58.88
78573;BME280;67862;0.000;0.000;2023-04-01T08:05:17;97726.59;;;21.09;58.58
78573;BME280;67862;0.000;0.000;2023-04-01T08:12:55;97728.84;;;21.07;58.75
78573;BME280;67862;0.000;0.000;2023-04-01T08:15:45;97730.44;;;21.08;58.80
78573;BME280;67862;0.000;0.000;2023-04-01T08:23:33;97728.84;;;21.07;58.81
78573;BME280;67862;0.000;0.000;2023-04-01T08:26:13;97728.84;;;21.07;58.60
78573;BME280;67862;0.000;0.000;2023-04-01T08:33:56;97733.50;;;21.06;58.43
78573;BME280;67862;0.000;0.000;2023-04-01T08:36:27;97738.16;;;21.06;57.93
78573;BME280;67862;0.000;0.000;2023-04-01T08:49:48;97735.75;;;21.04;58.02
78573;BME280;67862;0.000;0.000;2023-04-01T08:52:26;97742.63;;;21.02;58.31
78573;BME280;67862;0.000;0.000;2023-04-01T09:21:41;97728.19;;;21.01;58.08
78573;BME280;67862;0.000;0.000;2023-04-01T09:27:02;97727.41;;;21.01;58.17
78573;BME280;67862;0.000;0.000;2023-04-01T09:39:39;97737.50;;;21.00;57.83
78573;BME280;67862;0.000;0.000;2023-04-01T09:42:22;97732.53;;;21.02;57.91
78573;BME280;67862;0.000;0.000;2023-04-01T09:44:59;97727.06;;;21.02;57.66
78573;BME280;67862;0.000;0.000;2023-04-01T09:57:39;97734.44;;;21.02;57.22
78573;BME280;67862;0.000;0.000;2023-04-01T10:16:26;97740.56;;;20.99;57.53
78573;BME280;67862;0.000;0.000;2023-04-01T10:27:37;97743.28;;;20.99;57.32
78573;BME280;67862;0.000;0.000;2023-04-01T10:38:14;97743.63;;;20.97;57.20
78573;BME280;67862;0.000;0.000;2023-04-01T10:45:40;97744.28;;;20.94;57.19
78573;BME280;67862;0.000;0.000;2023-04-01T11:12:33;97760.78;;;20.89;57.27
78573;BME280;67862;0.000;0.000;2023-04-01T11:20:21;97749.06;;;20.89;57.32
78573;BME280;67862;0.000;0.000;2023-04-01T11:25:29;97747.78;;;20.86;56.73
78573;BME280;67862;0.000;0.000;2023-04-01T11:28:08;97740.41;;;20.86;57.02
78573;BME280;67862;0.000;0.000;2023-04-01T11:44:20;97734.97;;;20.95;56.90
78573;BME280;67862;0.000;0.000;2023-04-01T11:49:43;97745.53;;;20.97;56.41
78573;BME280;67862;0.000;0.000;2023-04-01T12:10:15;97754.19;;;20.99;56.22
78573;BME280;67862;0.000;0.000;2023-04-01T12:12:48;97756.28;;;21.02;56.18
78573;BME280;67862;0.000;0.000;2023-04-01T12:17:50;97765.44;;;21.06;56.08
78573;BME280;67862;0.000;0.000;2023-04-01T12:20:37;97755.78;;;21.08;55.80
78573;BME280;67862;0.000;0.000;2023-04-01T12:28:38;97750.00;;;21.10;55.73
78573;BME280;67862;0.000;0.000;2023-04-01T12:49:16;97748.88;;;21.37;55.28
78573;BME280;67862;0.000;0.000;2023-04-01T12:51:50;97743.91;;;21.39;54.93
78573;BME280;67862;0.000;0.000;2023-04-01T12:57:13;97732.66;;;21.40;54.93
78573;BME280;67862;0.000;0.000;2023-04-01T12:59:58;97749.34;;;21.48;55.01
78573;BME280;67862;0.000;0.000;2023-04-01T13:12:55;97729.53;;;21.59;55.18
78573;BME280;67862;0.000;0.000;2023-04-01T13:18:17;97728.75;;;21.59;55.10
78573;BME280;67862;0.000;0.000;2023-04-01T13:23:58;97736.75;;;21.64;55.13
78573;BME280;67862;0.000;0.000;2023-04-01T13:36:24;97740.28;;;21.73;54.72
78573;BME280;67862;0.000;0.000;2023-04-01T13:39:02;97739.59;;;21.76;54.50
78573;BME280;67862;0.000;0.000;2023-04-01T13:44:17;97731.28;;;21.73;54.60
78573;BME280;67862;0.000;0.000;2023-04-01T14:10:13;97746.34;;;21.79;54.79
78573;BME280;67862;0.000;0.000;2023-04-01T14:22:48;97746.06;;;21.71;54.97
78573;BME280;67862;0.000;0.000;2023-04-01T14:28:07;97746.38;;;21.70;54.73
78573;BME280;67862;0.000;0.000;2023-04-01T14:30:41;97743.34;;;21.71;54.76
78573;BME280;67862;0.000;0.000;2023-04-01T14:33:16;97750.53;;;21.76;54.65
78573;BME280;67862;0.000;0.000;2023-04-01T14:35:56;97746.63;;;21.86;54.50
78573;BME280;67862;0.000;0.000;2023-04-01T14:40:56;97754.16;;;21.89;54.14
78573;BME280;67862;0.000;0.000;2023-04-01T14:43:28;97747.44;;;21.86;54.43
78573;BME280;67862;0.000;0.000;2023-04-01T14:51:30;97740.06;;;21.78;54.37
78573;BME280;67862;0.000;0.000;2023-04-01T14:59:31;97742.47;;;21.80;54.26
78573;BME280;67862;0.000;0.000;2023-04-01T15:05:14;97744.03;;;21.89;54.13
78573;BME280;67862;0.000;0.000;2023-04-01T15:18:09;97743.19;;;21.97;54.16
78573;BME280;67862;0.000;0.000;2023-04-01T15:28:58;97754.75;;;22.03;53.95
78573;BME280;67862;0.000;0.000;2023-04-01T15:32:14;97756.69;;;22.03;53.71
78573;BME280;67862;0.000;0.000;2023-04-01T15:34:21;97768.25;;;21.99;54.07
78573;BME280;67862;0.000;0.000;2023-04-01T15:39:51;97767.16;;;22.00;53.72
78573;BME280;67862;0.000;0.000;2023-04-01T15:52:23;97776.03;;;21.89;53.97
78573;BME280;67862;0.000;0.000;2023-04-01T15:54:59;97781.47;;;21.89;54.05
78573;BME280;67862;0.000;0.000;2023-04-01T15:59:54;97784.25;;;21.80;54.35
78573;BME280;67862;0.000;0.000;2023-04-01T16:05:01;97787.97;;;21.76;54.04
78573;BME280;67862;0.000;0.000;2023-04-01T16:07:39;97793.09;;;21.77;54.59
78573;BME280;67862;0.000;0.000;2023-04-01T16:20:46;97784.91;;;21.77;54.29
78573;BME280;67862;0.000;0.000;2023-04-01T16:26:05;97797.28;;;21.75;54.50
78573;BME280;67862;0.000;0.000;2023-04-01T16:28:38;97788.31;;;21.74;54.68
78573;BME280;67862;0.000;0.000;2023-04-01T16:36:09;97792.78;;;21.79;54.20
78573;BME280;67862;0.000;0.000;2023-04-01T16:41:24;97807.88;;;21.76;54.27
78573;BME280;67862;0.000;0.000;2023-04-01T16:43:51;97802.44;;;21.76;54.46
78573;BME280;67862;0.000;0.000;2023-04-01T16:48:58;97814.47;;;21.75;54.41
78573;BME280;67862;0.000;0.000;2023-04-01T16:51:34;97814.00;;;21.73;54.47
78573;BME280;67862;0.000;0.000;2023-04-01T16:54:11;97812.72;;;21.70;54.39
78573;BME280;67862;0.000;0.000;2023-04-01T16:56:41;97811.13;;;21.69;54.36
78573;BME280;67862;0.000;0.000;2023-04-01T16:59:26;97805.66;;;21.69;54.02
78573;BME280;67862;0.000;0.000;2023-04-01T17:01:57;97814.97;;;21.68;54.03
78573;BME280;67862;0.000;0.000;2023-04-01T17:06:53;97818.03;;;21.67;54.25
78573;BME280;67862;0.000;0.000;2023-04-01T17:12:17;97817.91;;;21.63;54.42
78573;BME280;67862;0.000;0.000;2023-04-01T17:17:37;97821.44;;;21.64;54.28
78573;BME280;67862;0.000;0.000;2023-04-01T17:22:40;97829.16;;;21.62;54.63
78573;BME280;67862;0.000;0.000;2023-04-01T17:30:56;97839.56;;;21.60;54.57
78573;BME280;67862;0.000;0.000;2023-04-01T17:49:02;97847.28;;;21.58;54.13
78573;BME280;67862;0.000;0.000;2023-04-01T17:54:28;97846.50;;;21.57;53.97
78573;BME280;67862;0.000;0.000;2023-04-01T17:59:45;97855.00;;;21.56;54.33
78573;BME280;67862;0.000;0.000;2023-04-01T18:07:43;97873.16;;;21.52;54.38
78573;BME280;67862;0.000;0.000;2023-04-01T18:20:20;97885.53;;;21.49;54.10
78573;BME280;67862;0.000;0.000;2023-04-01T18:30:31;97894.50;;;21.50;54.58
78573;BME280;67862;0.000;0.000;2023-04-01T18:38:55;97892.91;;;21.49;54.57
78573;BME280;67862;0.000;0.000;2023-04-01T18:46:38;97899.03;;;21.46;55.20
78573;BME280;67862;0.000;0.000;2023-04-01T18:49:13;97906.88;;;21.47;54.95
78573;BME280;67862;0.000;0.000;2023-04-01T18:54:20;97911.53;;;21.47;54.68
78573;BME280;67862;0.000;0.000;2023-04-01T18:56:48;97903.69;;;21.45;56.35
78573;BME280;67862;0.000;0.000;2023-04-01T19:04:41;97913.81;;;21.45;59.13
78573;BME280;67862;0.000;0.000;2023-04-01T19:09:52;97916.69;;;21.48;60.05
78573;BME280;67862;0.000;0.000;2023-04-01T19:12:22;97917.00;;;21.47;60.50
78573;BME280;67862;0.000;0.000;2023-04-01T19:30:59;97932.91;;;21.53;61.49
78573;BME280;67862;0.000;0.000;2023-04-01T19:47:24;97952.19;;;21.57;61.03
78573;BME280;67862;0.000;0.000;2023-04-01T19:52:00;97957.97;;;21.55;61.25
78573;BME280;67862;0.000;0.000;2023-04-01T19:59:38;97957.97;;;21.55;61.32
78573;BME280;67862;0.000;0.000;2023-04-01T20:04:44;97961.81;;;21.54;60.79
78573;BME280;67862;0.000;0.000;2023-04-01T20:17:50;97971.44;;;21.52;61.44
78573;BME280;67862;0.000;0.000;2023-04-01T20:20:22;97974.16;;;21.52;60.80
78573;BME280;67862;0.000;0.000;2023-04-01T20:27:50;97977.41;;;21.54;61.46
78573;BME280;67862;0.000;0.000;2023-04-01T20:30:21;97979.63;;;21.52;61.14
78573;BME280;67862;0.000;0.000;2023-04-01T20:33:15;97977.41;;;21.54;61.10
78573;BME280;67862;0.000;0.000;2023-04-01T20:43:51;97974.81;;;21.49;61.17
78573;BME280;67862;0.000;0.000;2023-04-01T20:46:24;97985.75;;;21.49;61.03
78573;BME280;67862;0.000;0.000;2023-04-01T20:51:45;97975.63;;;21.49;61.46
78573;BME280;67862;0.000;0.000;2023-04-01T21:06:58;97982.06;;;21.53;61.54
78573;BME280;67862;0.000;0.000;2023-04-01T21:10:11;97988.16;;;21.50;61.45
78573;BME280;67862;0.000;0.000;2023-04-01T21:12:19;97982.84;;;21.45;61.19
78573;BME280;67862;0.000;0.000;2023-04-01T21:20:07;97988.00;;;21.47;61.60
78573;BME280;67862;0.000;0.000;2023-04-01T21:25:26;97991.53;;;21.47;61.41
78573;BME280;67862;0.000;0.000;2023-04-01T21:35:53;97997.97;;;21.42;61.11
78573;BME280;67862;0.000;0.000;2023-04-01T21:38:42;98005.81;;;21.44;61.95
78573;BME280;67862;0.000;0.000;2023-04-01T21:41:15;98006.31;;;21.55;62.18
78573;BME280;67862;0.000;0.000;2023-04-01T22:02:38;98009.69;;;21.60;61.91
78573;BME280;67862;0.000;0.000;2023-04-01T22:05:11;98014.00;;;21.61;61.51
78573;BME280;67862;0.000;0.000;2023-04-01T22:07:46;98009.88;;;21.64;61.88
78573;BME280;67862;0.000;0.000;2023-04-01T22:18:05;98011.94;;;21.58;61.53
78573;BME280;67862;0.000;0.000;2023-04-01T22:20:40;98013.06;;;21.57;61.56
78573;BME280;67862;0.000;0.000;2023-04-01T22:28:42;98017.56;;;21.62;61.92
78573;BME280;67862;0.000;0.000;2023-04-01T22:31:11;98015.66;;;21.62;62.00
78573;BME280;67862;0.000;0.000;2023-04-01T22:39:04;98018.19;;;21.59;61.95
78573;BME280;67862;0.000;0.000;2023-04-01T22:44:01;98031.53;;;21.60;62.00
78573;BME280;67862;0.000;0.000;2023-04-01T22:46:42;98031.53;;;21.60;62.10
78573;BME280;67862;0.000;0.000;2023-04-01T22:49:21;98032.03;;;21.62;61.60
78573;BME280;67862;0.000;0.000;2023-04-01T22:51:51;98035.56;;;21.63;61.69
78573;BME280;67862;0.000;0.000;2023-04-01T22:56:46;98046.31;;;21.59;61.73
78573;BME280;67862;0.000;0.000;2023-04-01T22:59:21;98037.31;;;21.59;62.09
78573;BME280;67862;0.000;0.000;2023-04-01T23:02:01;98034.59;;;21.59;62.43
78573;BME280;67862;0.000;0.000;2023-04-01T23:04:31;98047.09;;;21.60;62.24
78573;BME280;67862;0.000;0.000;2023-04-01T23:07:00;98039.72;;;21.60;61.86
78573;BME280;67862;0.000;0.000;2023-04-01T23:09:31;98044.69;;;21.58;61.92
78573;BME280;67862;0.000;0.000;2023-04-01T23:12:02;98054.81;;;21.58;61.98
78573;BME280;67862;0.000;0.000;2023-04-01T23:14:36;98050.16;;;21.58;62.11
78573;BME280;67862;0.000;0.000;2023-04-01T23:19:52;98063.69;;;21.63;62.25
78573;BME280;67862;0.000;0.000;2023-04-01T23:27:46;98076.34;;;21.59;62.00
78573;BME280;67862;0.000;0.000;2023-04-01T23:35:47;98075.88;;;21.57;61.67
78573;BME280;67862;0.000;0.000;2023-04-01T23:38:13;98073.13;;;21.57;62.10
78573;BME280;67862;0.000;0.000;2023-04-01T23:40:39;98074.25;;;21.56;61.43
78573;BME280;67862;0.000;0.000;2023-04-01T23:43:15;98075.06;;;21.57;61.70
78573;BME280;67862;0.000;0.000;2023-04-01T23:45:45;98081.31;;;21.57;61.92
78573;BME280;67862;0.000;0.000;2023-04-01T23:48:11;98073.13;;;21.57;61.86
78573;BME280;67862;0.000;0.000;2023-04-01T23:50:40;98074.75;;;21.58;61.48
78573;BME280;67862;0.000;0.000;2023-04-01T23:53:17;98077.47;;;21.58;61.77
78573;BME280;67862;0.000;0.000;2023-04-01T23:55:43;98077.47;;;21.58;61.94
